sensor_id;sensor_type;location;lat;lon;timestamp;P1;durP1;ratioP1;P2;durP2;ratioP2
10090;SDS011;5084;51.386;6.778;2023-04-23T00:02:09;15.97;;;14.37;;
10090;SDS011;5084;51.386;6.778;2023-04-23T00:04:36;17.23;;;15.50;;
10090;SDS011;5084;51.386;6.778;2023-04-23T00:07:04;17.77;;;15.80;;
10090;SDS011;5084;51.386;6.778;2023-04-23T00:09:31;18.67;;;16.77;;
10090;SDS011;5084;51.386;6.778;2023-04-23T00:11:58;17.17;;;15.37;;
10090;SDS011;5084;51.386;6.778;2023-04-23T00:14:25;18.03;;;16.13;;
10090;SDS011;5084;51.386;6.778;2023-04-23T00:16:52;18.83;;;16.83;;
10090;SDS011;5084;51.386;6.778;2023-04-23T00:19:18;17.40;;;15.60;;
10090;SDS011;5084;51.386;6.778;2023-04-23T00:21:45;18.33;;;16.23;;
10090;SDS011;5084;51.386;6.778;2023-04-23T00:24:11;18.53;;;16.17;;
10090;SDS011;5084;51.386;6.778;2023-04-23T00:26:38;17.23;;;15.30;;
10090;SDS011;5084;51.386;6.778;2023-04-23T00:29:04;20.03;;;16.50;;
10090;SDS011;5084;51.386;6.778;2023-04-23T00:31:31;17.87;;;15.93;;
10090;SDS011;5084;51.386;6.778;2023-04-23T00:33:57;19.13;;;17.10;;
10090;SDS011;5084;51.386;6.778;2023-04-23T00:36:23;18.17;;;15.47;;
10090;SDS011;5084;51.386;6.778;2023-04-23T00:38:50;19.47;;;16.33;;
10090;SDS011;5084;51.386;6.778;2023-04-23T00:41:16;16.63;;;14.23;;
10090;SDS011;5084;51.386;6.778;2023-04-23T00:43:43;19.13;;;16.27;;
10090;SDS011;5084;51.386;6.778;2023-04-23T00:46:09;16.47;;;14.47;;
10090;SDS011;5084;51.386;6.778;2023-04-23T00:48:36;17.73;;;15.60;;
10090;SDS011;5084;51.386;6.778;2023-04-23T00:51:03;19.43;;;15.20;;
10090;SDS011;5084;51.386;6.778;2023-04-23T00:53:30;20.53;;;15.67;;
10090;SDS011;5084;51.386;6.778;2023-04-23T00:55:56;16.13;;;14.27;;
10090;SDS011;5084;51.386;6.778;2023-04-23T00:58:23;16.60;;;14.87;;
10090;SDS011;5084;51.386;6.778;2023-04-23T01:00:49;16.73;;;14.93;;
10090;SDS011;5084;51.386;6.778;2023-04-23T01:03:16;17.17;;;15.33;;
10090;SDS011;5084;51.386;6.778;2023-04-23T01:05:45;16.83;;;13.07;;
10090;SDS011;5084;51.386;6.778;2023-04-23T01:08:14;17.70;;;14.60;;
10090;SDS011;5084;51.386;6.778;2023-04-23T01:10:41;15.37;;;13.70;;
10090;SDS011;5084;51.386;6.778;2023-04-23T01:13:08;17.33;;;13.97;;
10090;SDS011;5084;51.386;6.778;2023-04-23T01:15:34;17.73;;;14.53;;
10090;SDS011;5084;51.386;6.778;2023-04-23T01:18:00;15.97;;;13.67;;
10090;SDS011;5084;51.386;6.778;2023-04-23T01:20:28;14.77;;;12.73;;
10090;SDS011;5084;51.386;6.778;2023-04-23T01:22:56;14.87;;;13.40;;
10090;SDS011;5084;51.386;6.778;2023-04-23T01:25:22;14.10;;;12.60;;
10090;SDS011;5084;51.386;6.778;2023-04-23T01:27:48;15.50;;;13.13;;
10090;SDS011;5084;51.386;6.778;2023-04-23T01:30:15;15.53;;;14.03;;
10090;SDS011;5084;51.386;6.778;2023-04-23T01:32:41;13.73;;;12.33;;
10090;SDS011;5084;51.386;6.778;2023-04-23T01:35:08;14.23;;;12.73;;
10090;SDS011;5084;51.386;6.778;2023-04-23T01:37:34;14.33;;;12.77;;
10090;SDS011;5084;51.386;6.778;2023-04-23T01:40:02;13.60;;;12.20;;
10090;SDS011;5084;51.386;6.778;2023-04-23T01:42:28;12.33;;;11.03;;
10090;SDS011;5084;51.386;6.778;2023-04-23T01:44:55;13.87;;;11.97;;
10090;SDS011;5084;51.386;6.778;2023-04-23T01:47:21;13.23;;;11.83;;
10090;SDS011;5084;51.386;6.778;2023-04-23T01:49:47;13.90;;;12.33;;
10090;SDS011;5084;51.386;6.778;2023-04-23T01:52:14;12.70;;;11.40;;
10090;SDS011;5084;51.386;6.778;2023-04-23T01:54:40;14.80;;;11.87;;
10090;SDS011;5084;51.386;6.778;2023-04-23T01:57:06;14.73;;;12.23;;
10090;SDS011;5084;51.386;6.778;2023-04-23T01:59:33;12.17;;;10.90;;
10090;SDS011;5084;51.386;6.778;2023-04-23T02:01:59;12.80;;;11.50;;
10090;SDS011;5084;51.386;6.778;2023-04-23T02:04:25;14.40;;;11.87;;
10090;SDS011;5084;51.386;6.778;2023-04-23T02:06:52;13.93;;;11.53;;
10090;SDS011;5084;51.386;6.778;2023-04-23T02:09:18;12.87;;;11.53;;
10090;SDS011;5084;51.386;6.778;2023-04-23T02:11:45;12.50;;;11.20;;
10090;SDS011;5084;51.386;6.778;2023-04-23T02:14:11;12.67;;;11.40;;
10090;SDS011;5084;51.386;6.778;2023-04-23T02:16:37;11.37;;;10.27;;
10090;SDS011;5084;51.386;6.778;2023-04-23T02:19:04;12.47;;;11.23;;
10090;SDS011;5084;51.386;6.778;2023-04-23T02:21:31;13.37;;;11.37;;
10090;SDS011;5084;51.386;6.778;2023-04-23T02:23:57;12.20;;;10.67;;
10090;SDS011;5084;51.386;6.778;2023-04-23T02:26:23;12.63;;;10.50;;
10090;SDS011;5084;51.386;6.778;2023-04-23T02:28:49;12.63;;;10.83;;
10090;SDS011;5084;51.386;6.778;2023-04-23T02:31:16;11.97;;;10.03;;
10090;SDS011;5084;51.386;6.778;2023-04-23T02:33:44;10.77;;;9.60;;
10090;SDS011;5084;51.386;6.778;2023-04-23T02:36:11;14.07;;;11.57;;
10090;SDS011;5084;51.386;6.778;2023-04-23T02:38:37;12.10;;;10.87;;
10090;SDS011;5084;51.386;6.778;2023-04-23T02:41:09;12.27;;;11.07;;
10090;SDS011;5084;51.386;6.778;2023-04-23T02:43:35;12.30;;;10.90;;
10090;SDS011;5084;51.386;6.778;2023-04-23T02:46:01;10.40;;;9.30;;
10090;SDS011;5084;51.386;6.778;2023-04-23T02:48:38;12.20;;;10.90;;
10090;SDS011;5084;51.386;6.778;2023-04-23T02:51:04;11.80;;;10.70;;
10090;SDS011;5084;51.386;6.778;2023-04-23T02:53:31;12.17;;;10.97;;
10090;SDS011;5084;51.386;6.778;2023-04-23T02:55:57;12.17;;;10.63;;
10090;SDS011;5084;51.386;6.778;2023-04-23T02:58:24;12.27;;;10.97;;
10090;SDS011;5084;51.386;6.778;2023-04-23T03:00:50;12.33;;;10.83;;
10090;SDS011;5084;51.386;6.778;2023-04-23T03:03:17;12.73;;;11.43;;
10090;SDS011;5084;51.386;6.778;2023-04-23T03:05:43;12.43;;;10.93;;
10090;SDS011;5084;51.386;6.778;2023-04-23T03:08:09;12.70;;;11.30;;
10090;SDS011;5084;51.386;6.778;2023-04-23T03:10:35;12.90;;;11.67;;
10090;SDS011;5084;51.386;6.778;2023-04-23T03:13:01;11.70;;;10.60;;
10090;SDS011;5084;51.386;6.778;2023-04-23T03:15:27;14.40;;;10.90;;
10090;SDS011;5084;51.386;6.778;2023-04-23T03:17:54;13.07;;;11.63;;
10090;SDS011;5084;51.386;6.778;2023-04-23T03:20:20;12.83;;;11.13;;
10090;SDS011;5084;51.386;6.778;2023-04-23T03:22:46;13.17;;;11.83;;
10090;SDS011;5084;51.386;6.778;2023-04-23T03:25:13;13.47;;;11.47;;
10090;SDS011;5084;51.386;6.778;2023-04-23T03:27:39;12.00;;;10.37;;
10090;SDS011;5084;51.386;6.778;2023-04-23T03:30:07;12.97;;;10.70;;
10090;SDS011;5084;51.386;6.778;2023-04-23T03:32:35;12.80;;;11.47;;
10090;SDS011;5084;51.386;6.778;2023-04-23T03:35:01;12.17;;;11.00;;
10090;SDS011;5084;51.386;6.778;2023-04-23T03:37:27;13.47;;;12.07;;
10090;SDS011;5084;51.386;6.778;2023-04-23T03:39:53;13.10;;;11.90;;
10090;SDS011;5084;51.386;6.778;2023-04-23T03:42:20;14.33;;;12.30;;
10090;SDS011;5084;51.386;6.778;2023-04-23T03:44:46;12.73;;;11.40;;
10090;SDS011;5084;51.386;6.778;2023-04-23T03:47:12;12.77;;;11.47;;
10090;SDS011;5084;51.386;6.778;2023-04-23T03:49:38;12.00;;;10.83;;
10090;SDS011;5084;51.386;6.778;2023-04-23T03:52:05;12.47;;;11.27;;
10090;SDS011;5084;51.386;6.778;2023-04-23T03:54:31;13.93;;;12.43;;
10090;SDS011;5084;51.386;6.778;2023-04-23T03:56:57;13.90;;;11.43;;
10090;SDS011;5084;51.386;6.778;2023-04-23T03:59:23;14.65;;;13.27;;
10090;SDS011;5084;51.386;6.778;2023-04-23T04:01:50;12.93;;;11.67;;
10090;SDS011;5084;51.386;6.778;2023-04-23T04:04:16;14.17;;;12.80;;
10090;SDS011;5084;51.386;6.778;2023-04-23T04:06:42;12.80;;;11.50;;
10090;SDS011;5084;51.386;6.778;2023-04-23T04:09:08;12.07;;;10.90;;
10090;SDS011;5084;51.386;6.778;2023-04-23T04:11:34;13.40;;;12.10;;
10090;SDS011;5084;51.386;6.778;2023-04-23T04:14:00;13.97;;;11.60;;
10090;SDS011;5084;51.386;6.778;2023-04-23T04:16:27;12.20;;;10.90;;
10090;SDS011;5084;51.386;6.778;2023-04-23T04:18:53;13.23;;;11.83;;
10090;SDS011;5084;51.386;6.778;2023-04-23T04:21:20;13.80;;;12.40;;
10090;SDS011;5084;51.386;6.778;2023-04-23T04:23:46;13.43;;;12.03;;
10090;SDS011;5084;51.386;6.778;2023-04-23T04:26:12;12.17;;;10.90;;
10090;SDS011;5084;51.386;6.778;2023-04-23T04:28:39;12.80;;;11.33;;
10090;SDS011;5084;51.386;6.778;2023-04-23T04:31:05;12.37;;;11.03;;
10090;SDS011;5084;51.386;6.778;2023-04-23T04:33:32;12.53;;;11.13;;
10090;SDS011;5084;51.386;6.778;2023-04-23T04:36:00;13.00;;;11.60;;
10090;SDS011;5084;51.386;6.778;2023-04-23T04:38:26;12.53;;;11.23;;
10090;SDS011;5084;51.386;6.778;2023-04-23T04:40:53;12.30;;;11.10;;
10090;SDS011;5084;51.386;6.778;2023-04-23T04:43:24;12.37;;;11.10;;
10090;SDS011;5084;51.386;6.778;2023-04-23T04:45:50;11.83;;;10.63;;
10090;SDS011;5084;51.386;6.778;2023-04-23T04:48:17;12.33;;;10.60;;
10090;SDS011;5084;51.386;6.778;2023-04-23T04:50:44;12.80;;;11.00;;
10090;SDS011;5084;51.386;6.778;2023-04-23T04:53:11;13.90;;;12.17;;
10090;SDS011;5084;51.386;6.778;2023-04-23T04:55:38;12.60;;;11.30;;
10090;SDS011;5084;51.386;6.778;2023-04-23T04:58:04;13.37;;;11.40;;
10090;SDS011;5084;51.386;6.778;2023-04-23T05:00:31;12.87;;;11.60;;
10090;SDS011;5084;51.386;6.778;2023-04-23T05:02:57;12.50;;;10.90;;
10090;SDS011;5084;51.386;6.778;2023-04-23T05:05:24;11.63;;;10.43;;
10090;SDS011;5084;51.386;6.778;2023-04-23T05:07:51;12.47;;;11.27;;
10090;SDS011;5084;51.386;6.778;2023-04-23T05:10:18;11.60;;;10.40;;
10090;SDS011;5084;51.386;6.778;2023-04-23T05:12:45;11.30;;;10.10;;
10090;SDS011;5084;51.386;6.778;2023-04-23T05:15:12;12.50;;;10.50;;
10090;SDS011;5084;51.386;6.778;2023-04-23T05:17:39;11.60;;;10.23;;
10090;SDS011;5084;51.386;6.778;2023-04-23T05:20:05;12.63;;;11.37;;
10090;SDS011;5084;51.386;6.778;2023-04-23T05:22:38;13.47;;;11.13;;
10090;SDS011;5084;51.386;6.778;2023-04-23T05:25:05;12.23;;;11.03;;
10090;SDS011;5084;51.386;6.778;2023-04-23T05:27:32;13.30;;;11.40;;
10090;SDS011;5084;51.386;6.778;2023-04-23T05:29:59;12.03;;;10.70;;
10090;SDS011;5084;51.386;6.778;2023-04-23T05:32:25;11.53;;;10.17;;
10090;SDS011;5084;51.386;6.778;2023-04-23T05:34:52;12.50;;;10.47;;
10090;SDS011;5084;51.386;6.778;2023-04-23T05:37:20;12.50;;;11.30;;
10090;SDS011;5084;51.386;6.778;2023-04-23T05:39:46;11.63;;;10.43;;
10090;SDS011;5084;51.386;6.778;2023-04-23T05:42:12;12.00;;;10.80;;
10090;SDS011;5084;51.386;6.778;2023-04-23T05:44:39;11.87;;;10.67;;
10090;SDS011;5084;51.386;6.778;2023-04-23T05:47:06;12.97;;;10.43;;
10090;SDS011;5084;51.386;6.778;2023-04-23T05:49:33;13.33;;;11.93;;
10090;SDS011;5084;51.386;6.778;2023-04-23T05:52:00;12.67;;;11.33;;
10090;SDS011;5084;51.386;6.778;2023-04-23T05:54:27;12.13;;;10.53;;
10090;SDS011;5084;51.386;6.778;2023-04-23T05:56:53;12.10;;;10.90;;
10090;SDS011;5084;51.386;6.778;2023-04-23T05:59:19;11.73;;;10.53;;
10090;SDS011;5084;51.386;6.778;2023-04-23T06:01:46;11.57;;;10.37;;
10090;SDS011;5084;51.386;6.778;2023-04-23T06:04:13;11.67;;;10.57;;
10090;SDS011;5084;51.386;6.778;2023-04-23T06:06:39;11.87;;;10.63;;
10090;SDS011;5084;51.386;6.778;2023-04-23T06:09:06;12.37;;;10.93;;
10090;SDS011;5084;51.386;6.778;2023-04-23T06:11:32;11.43;;;10.17;;
10090;SDS011;5084;51.386;6.778;2023-04-23T06:14:00;10.70;;;9.57;;
10090;SDS011;5084;51.386;6.778;2023-04-23T06:16:26;10.83;;;9.83;;
10090;SDS011;5084;51.386;6.778;2023-04-23T06:18:52;10.97;;;9.80;;
10090;SDS011;5084;51.386;6.778;2023-04-23T06:21:20;15.13;;;10.07;;
10090;SDS011;5084;51.386;6.778;2023-04-23T06:23:46;11.07;;;9.97;;
10090;SDS011;5084;51.386;6.778;2023-04-23T06:26:14;11.57;;;9.37;;
10090;SDS011;5084;51.386;6.778;2023-04-23T06:28:44;10.77;;;9.67;;
10090;SDS011;5084;51.386;6.778;2023-04-23T06:31:10;10.63;;;8.80;;
10090;SDS011;5084;51.386;6.778;2023-04-23T06:33:37;10.13;;;8.50;;
10090;SDS011;5084;51.386;6.778;2023-04-23T06:36:03;11.03;;;9.47;;
10090;SDS011;5084;51.386;6.778;2023-04-23T06:38:30;10.90;;;9.53;;
10090;SDS011;5084;51.386;6.778;2023-04-23T06:40:56;10.40;;;9.23;;
10090;SDS011;5084;51.386;6.778;2023-04-23T06:43:23;10.73;;;9.63;;
10090;SDS011;5084;51.386;6.778;2023-04-23T06:45:49;9.93;;;8.70;;
10090;SDS011;5084;51.386;6.778;2023-04-23T06:48:15;10.67;;;9.57;;
10090;SDS011;5084;51.386;6.778;2023-04-23T06:50:43;10.23;;;9.23;;
10090;SDS011;5084;51.386;6.778;2023-04-23T06:53:09;9.77;;;8.70;;
10090;SDS011;5084;51.386;6.778;2023-04-23T06:55:35;8.40;;;7.57;;
10090;SDS011;5084;51.386;6.778;2023-04-23T06:58:01;10.20;;;9.17;;
10090;SDS011;5084;51.386;6.778;2023-04-23T07:00:27;10.17;;;9.07;;
10090;SDS011;5084;51.386;6.778;2023-04-23T07:02:54;9.43;;;8.53;;
10090;SDS011;5084;51.386;6.778;2023-04-23T07:05:20;10.10;;;9.10;;
10090;SDS011;5084;51.386;6.778;2023-04-23T07:07:46;10.13;;;9.13;;
10090;SDS011;5084;51.386;6.778;2023-04-23T07:10:13;10.60;;;9.47;;
10090;SDS011;5084;51.386;6.778;2023-04-23T07:12:39;9.80;;;8.50;;
10090;SDS011;5084;51.386;6.778;2023-04-23T07:15:05;9.47;;;8.47;;
10090;SDS011;5084;51.386;6.778;2023-04-23T07:17:32;9.83;;;8.80;;
10090;SDS011;5084;51.386;6.778;2023-04-23T07:19:59;9.60;;;8.57;;
10090;SDS011;5084;51.386;6.778;2023-04-23T07:22:29;10.33;;;9.07;;
10090;SDS011;5084;51.386;6.778;2023-04-23T07:24:55;10.90;;;9.73;;
10090;SDS011;5084;51.386;6.778;2023-04-23T07:27:22;9.43;;;8.53;;
10090;SDS011;5084;51.386;6.778;2023-04-23T07:29:49;9.83;;;8.83;;
10090;SDS011;5084;51.386;6.778;2023-04-23T07:32:15;8.67;;;7.87;;
10090;SDS011;5084;51.386;6.778;2023-04-23T07:34:42;11.10;;;8.40;;
10090;SDS011;5084;51.386;6.778;2023-04-23T07:37:10;11.67;;;9.07;;
10090;SDS011;5084;51.386;6.778;2023-04-23T07:39:37;9.33;;;8.40;;
10090;SDS011;5084;51.386;6.778;2023-04-23T07:42:03;10.63;;;8.40;;
10090;SDS011;5084;51.386;6.778;2023-04-23T07:44:29;8.60;;;7.80;;
10090;SDS011;5084;51.386;6.778;2023-04-23T07:46:56;7.73;;;6.93;;
10090;SDS011;5084;51.386;6.778;2023-04-23T07:49:22;8.47;;;7.67;;
10090;SDS011;5084;51.386;6.778;2023-04-23T07:51:49;7.80;;;6.90;;
10090;SDS011;5084;51.386;6.778;2023-04-23T07:54:15;7.60;;;6.90;;
10090;SDS011;5084;51.386;6.778;2023-04-23T07:56:41;7.97;;;7.17;;
10090;SDS011;5084;51.386;6.778;2023-04-23T07:59:08;7.47;;;6.30;;
10090;SDS011;5084;51.386;6.778;2023-04-23T08:01:34;6.53;;;5.93;;
10090;SDS011;5084;51.386;6.778;2023-04-23T08:04:01;7.90;;;6.73;;
10090;SDS011;5084;51.386;6.778;2023-04-23T08:06:27;9.07;;;6.20;;
10090;SDS011;5084;51.386;6.778;2023-04-23T08:08:59;8.10;;;6.13;;
10090;SDS011;5084;51.386;6.778;2023-04-23T08:11:30;7.47;;;5.83;;
10090;SDS011;5084;51.386;6.778;2023-04-23T08:13:56;7.77;;;5.83;;
10090;SDS011;5084;51.386;6.778;2023-04-23T08:16:23;6.50;;;5.90;;
10090;SDS011;5084;51.386;6.778;2023-04-23T08:18:50;7.30;;;5.93;;
10090;SDS011;5084;51.386;6.778;2023-04-23T08:21:16;6.97;;;5.93;;
10090;SDS011;5084;51.386;6.778;2023-04-23T08:23:43;6.57;;;5.83;;
10090;SDS011;5084;51.386;6.778;2023-04-23T08:26:10;6.37;;;5.80;;
10090;SDS011;5084;51.386;6.778;2023-04-23T08:28:36;5.50;;;5.00;;
10090;SDS011;5084;51.386;6.778;2023-04-23T08:31:03;5.10;;;4.70;;
10090;SDS011;5084;51.386;6.778;2023-04-23T08:33:29;5.83;;;4.53;;
10090;SDS011;5084;51.386;6.778;2023-04-23T08:35:56;5.33;;;4.67;;
10090;SDS011;5084;51.386;6.778;2023-04-23T08:38:22;5.83;;;5.33;;
10090;SDS011;5084;51.386;6.778;2023-04-23T08:40:48;5.03;;;4.63;;
10090;SDS011;5084;51.386;6.778;2023-04-23T08:43:17;5.83;;;4.80;;
10090;SDS011;5084;51.386;6.778;2023-04-23T08:45:45;5.43;;;4.93;;
10090;SDS011;5084;51.386;6.778;2023-04-23T08:48:11;5.60;;;4.87;;
10090;SDS011;5084;51.386;6.778;2023-04-23T08:50:41;5.33;;;4.83;;
10090;SDS011;5084;51.386;6.778;2023-04-23T08:53:08;6.90;;;4.47;;
10090;SDS011;5084;51.386;6.778;2023-04-23T08:55:35;4.40;;;4.00;;
10090;SDS011;5084;51.386;6.778;2023-04-23T08:58:02;5.20;;;4.10;;
10090;SDS011;5084;51.386;6.778;2023-04-23T09:00:30;4.83;;;4.43;;
10090;SDS011;5084;51.386;6.778;2023-04-23T09:02:58;5.83;;;5.00;;
10090;SDS011;5084;51.386;6.778;2023-04-23T09:05:25;6.20;;;4.50;;
10090;SDS011;5084;51.386;6.778;2023-04-23T09:07:52;7.40;;;4.83;;
10090;SDS011;5084;51.386;6.778;2023-04-23T09:10:19;6.20;;;4.80;;
10090;SDS011;5084;51.386;6.778;2023-04-23T09:12:45;6.97;;;4.57;;
10090;SDS011;5084;51.386;6.778;2023-04-23T09:15:12;4.53;;;4.13;;
10090;SDS011;5084;51.386;6.778;2023-04-23T09:17:39;4.53;;;4.07;;
10090;SDS011;5084;51.386;6.778;2023-04-23T09:20:06;4.27;;;3.43;;
10090;SDS011;5084;51.386;6.778;2023-04-23T09:22:44;5.87;;;3.73;;
10090;SDS011;5084;51.386;6.778;2023-04-23T09:25:11;4.10;;;3.80;;
10090;SDS011;5084;51.386;6.778;2023-04-23T09:27:38;5.47;;;3.63;;
10090;SDS011;5084;51.386;6.778;2023-04-23T09:30:05;4.97;;;4.13;;
10090;SDS011;5084;51.386;6.778;2023-04-23T09:32:35;3.67;;;3.23;;
10090;SDS011;5084;51.386;6.778;2023-04-23T09:35:05;3.67;;;3.37;;
10090;SDS011;5084;51.386;6.778;2023-04-23T09:37:32;5.87;;;3.27;;
10090;SDS011;5084;51.386;6.778;2023-04-23T09:40:03;6.67;;;3.43;;
10090;SDS011;5084;51.386;6.778;2023-04-23T09:42:31;4.47;;;3.73;;
10090;SDS011;5084;51.386;6.778;2023-04-23T09:44:59;3.73;;;3.33;;
10090;SDS011;5084;51.386;6.778;2023-04-23T09:47:29;3.87;;;3.53;;
10090;SDS011;5084;51.386;6.778;2023-04-23T09:49:56;3.60;;;3.30;;
10090;SDS011;5084;51.386;6.778;2023-04-23T09:52:23;5.23;;;3.30;;
10090;SDS011;5084;51.386;6.778;2023-04-23T09:54:50;4.43;;;3.30;;
10090;SDS011;5084;51.386;6.778;2023-04-23T09:57:16;5.17;;;2.93;;
10090;SDS011;5084;51.386;6.778;2023-04-23T09:59:43;5.33;;;3.20;;
10090;SDS011;5084;51.386;6.778;2023-04-23T10:02:09;2.83;;;2.60;;
10090;SDS011;5084;51.386;6.778;2023-04-23T10:04:36;4.10;;;3.10;;
10090;SDS011;5084;51.386;6.778;2023-04-23T10:07:03;4.33;;;3.93;;
10090;SDS011;5084;51.386;6.778;2023-04-23T10:09:32;3.70;;;3.30;;
10090;SDS011;5084;51.386;6.778;2023-04-23T10:11:59;3.80;;;3.33;;
10090;SDS011;5084;51.386;6.778;2023-04-23T10:14:29;3.83;;;3.37;;
10090;SDS011;5084;51.386;6.778;2023-04-23T10:16:59;3.53;;;3.23;;
10090;SDS011;5084;51.386;6.778;2023-04-23T10:19:26;3.67;;;3.27;;
10090;SDS011;5084;51.386;6.778;2023-04-23T10:21:54;4.07;;;2.87;;
10090;SDS011;5084;51.386;6.778;2023-04-23T10:24:24;5.67;;;3.10;;
10090;SDS011;5084;51.386;6.778;2023-04-23T10:26:55;3.40;;;2.90;;
10090;SDS011;5084;51.386;6.778;2023-04-23T10:29:25;2.97;;;2.67;;
10090;SDS011;5084;51.386;6.778;2023-04-23T10:31:52;3.20;;;2.90;;
10090;SDS011;5084;51.386;6.778;2023-04-23T10:34:18;2.90;;;2.70;;
10090;SDS011;5084;51.386;6.778;2023-04-23T10:36:45;7.17;;;3.57;;
10090;SDS011;5084;51.386;6.778;2023-04-23T10:39:11;3.40;;;3.10;;
10090;SDS011;5084;51.386;6.778;2023-04-23T10:41:40;5.50;;;3.27;;
10090;SDS011;5084;51.386;6.778;2023-04-23T10:44:10;4.17;;;3.30;;
10090;SDS011;5084;51.386;6.778;2023-04-23T10:46:37;4.13;;;3.10;;
10090;SDS011;5084;51.386;6.778;2023-04-23T10:51:35;3.43;;;2.80;;
10090;SDS011;5084;51.386;6.778;2023-04-23T10:54:02;3.93;;;3.20;;
10090;SDS011;5084;51.386;6.778;2023-04-23T10:56:29;3.07;;;2.77;;
10090;SDS011;5084;51.386;6.778;2023-04-23T10:58:56;3.33;;;2.60;;
10090;SDS011;5084;51.386;6.778;2023-04-23T11:01:23;4.00;;;2.47;;
10090;SDS011;5084;51.386;6.778;2023-04-23T11:03:51;2.90;;;2.60;;
10090;SDS011;5084;51.386;6.778;2023-04-23T11:06:51;2.63;;;2.43;;
10090;SDS011;5084;51.386;6.778;2023-04-23T11:09:29;3.13;;;2.70;;
10090;SDS011;5084;51.386;6.778;2023-04-23T11:11:55;3.33;;;3.00;;
10090;SDS011;5084;51.386;6.778;2023-04-23T11:14:35;3.63;;;2.63;;
10090;SDS011;5084;51.386;6.778;2023-04-23T11:17:02;6.60;;;2.70;;
10090;SDS011;5084;51.386;6.778;2023-04-23T11:19:29;2.97;;;2.77;;
10090;SDS011;5084;51.386;6.778;2023-04-23T11:22:29;3.00;;;2.70;;
10090;SDS011;5084;51.386;6.778;2023-04-23T11:24:48;3.73;;;2.53;;
10090;SDS011;5084;51.386;6.778;2023-04-23T11:27:15;2.77;;;2.53;;
10090;SDS011;5084;51.386;6.778;2023-04-23T11:29:42;4.10;;;2.70;;
10090;SDS011;5084;51.386;6.778;2023-04-23T11:32:09;4.13;;;2.60;;
10090;SDS011;5084;51.386;6.778;2023-04-23T11:34:40;3.20;;;2.23;;
10090;SDS011;5084;51.386;6.778;2023-04-23T11:37:10;4.73;;;2.23;;
10090;SDS011;5084;51.386;6.778;2023-04-23T11:39:37;4.07;;;2.10;;
10090;SDS011;5084;51.386;6.778;2023-04-23T11:42:14;3.27;;;2.20;;
10090;SDS011;5084;51.386;6.778;2023-04-23T11:44:42;3.07;;;2.03;;
10090;SDS011;5084;51.386;6.778;2023-04-23T11:47:09;4.53;;;2.03;;
10090;SDS011;5084;51.386;6.778;2023-04-23T11:49:35;2.47;;;2.27;;
10090;SDS011;5084;51.386;6.778;2023-04-23T11:52:02;3.70;;;2.30;;
10090;SDS011;5084;51.386;6.778;2023-04-23T11:54:29;4.87;;;2.40;;
10090;SDS011;5084;51.386;6.778;2023-04-23T11:56:55;4.27;;;2.30;;
10090;SDS011;5084;51.386;6.778;2023-04-23T11:59:26;5.17;;;2.73;;
10090;SDS011;5084;51.386;6.778;2023-04-23T12:01:54;4.27;;;2.50;;
10090;SDS011;5084;51.386;6.778;2023-04-23T12:04:22;5.23;;;3.10;;
10090;SDS011;5084;51.386;6.778;2023-04-23T12:06:49;4.33;;;2.50;;
10090;SDS011;5084;51.386;6.778;2023-04-23T12:09:16;2.40;;;2.20;;
10090;SDS011;5084;51.386;6.778;2023-04-23T12:11:43;4.60;;;2.27;;
10090;SDS011;5084;51.386;6.778;2023-04-23T12:14:10;3.17;;;2.53;;
10090;SDS011;5084;51.386;6.778;2023-04-23T12:16:43;3.77;;;2.00;;
10090;SDS011;5084;51.386;6.778;2023-04-23T12:19:13;2.43;;;2.23;;
10090;SDS011;5084;51.386;6.778;2023-04-23T12:22:13;1.80;;;1.70;;
10090;SDS011;5084;51.386;6.778;2023-04-23T12:24:48;2.60;;;2.40;;
10090;SDS011;5084;51.386;6.778;2023-04-23T12:27:19;2.83;;;1.90;;
10090;SDS011;5084;51.386;6.778;2023-04-23T12:29:59;1.97;;;1.77;;
10090;SDS011;5084;51.386;6.778;2023-04-23T12:32:26;2.97;;;2.07;;
10090;SDS011;5084;51.386;6.778;2023-04-23T12:34:54;2.30;;;1.90;;
10090;SDS011;5084;51.386;6.778;2023-04-23T12:37:27;2.47;;;1.90;;
10090;SDS011;5084;51.386;6.778;2023-04-23T12:39:54;3.20;;;1.97;;
10090;SDS011;5084;51.386;6.778;2023-04-23T12:42:23;2.63;;;2.10;;
10090;SDS011;5084;51.386;6.778;2023-04-23T12:44:50;1.70;;;1.60;;
10090;SDS011;5084;51.386;6.778;2023-04-23T12:47:19;3.00;;;1.90;;
10090;SDS011;5084;51.386;6.778;2023-04-23T12:49:47;2.20;;;2.00;;
10090;SDS011;5084;51.386;6.778;2023-04-23T12:52:17;2.20;;;1.63;;
10090;SDS011;5084;51.386;6.778;2023-04-23T12:54:43;2.10;;;1.67;;
10090;SDS011;5084;51.386;6.778;2023-04-23T12:57:11;1.80;;;1.70;;
10090;SDS011;5084;51.386;6.778;2023-04-23T12:59:38;1.97;;;1.70;;
10090;SDS011;5084;51.386;6.778;2023-04-23T13:02:04;2.67;;;1.70;;
10090;SDS011;5084;51.386;6.778;2023-04-23T13:04:31;2.60;;;1.90;;
10090;SDS011;5084;51.386;6.778;2023-04-23T13:06:58;2.70;;;1.90;;
10090;SDS011;5084;51.386;6.778;2023-04-23T13:09:24;2.30;;;1.73;;
10090;SDS011;5084;51.386;6.778;2023-04-23T13:11:52;2.40;;;1.80;;
10090;SDS011;5084;51.386;6.778;2023-04-23T13:14:18;2.67;;;2.00;;
10090;SDS011;5084;51.386;6.778;2023-04-23T13:16:45;4.90;;;1.83;;
10090;SDS011;5084;51.386;6.778;2023-04-23T13:19:11;2.70;;;1.90;;
10090;SDS011;5084;51.386;6.778;2023-04-23T13:21:38;3.17;;;1.70;;
10090;SDS011;5084;51.386;6.778;2023-04-23T13:24:04;4.33;;;2.13;;
10090;SDS011;5084;51.386;6.778;2023-04-23T13:26:32;1.87;;;1.60;;
10090;SDS011;5084;51.386;6.778;2023-04-23T13:28:59;1.97;;;1.80;;
10090;SDS011;5084;51.386;6.778;2023-04-23T13:31:26;1.80;;;1.70;;
10090;SDS011;5084;51.386;6.778;2023-04-23T13:33:52;3.50;;;1.80;;
10090;SDS011;5084;51.386;6.778;2023-04-23T13:36:18;2.03;;;1.70;;
10090;SDS011;5084;51.386;6.778;2023-04-23T13:38:45;1.70;;;1.60;;
10090;SDS011;5084;51.386;6.778;2023-04-23T13:41:12;1.77;;;1.67;;
10090;SDS011;5084;51.386;6.778;2023-04-23T13:43:38;2.37;;;1.50;;
10090;SDS011;5084;51.386;6.778;2023-04-23T13:46:04;1.77;;;1.67;;
10090;SDS011;5084;51.386;6.778;2023-04-23T13:48:31;5.73;;;1.70;;
10090;SDS011;5084;51.386;6.778;2023-04-23T13:50:58;3.10;;;1.90;;
10090;SDS011;5084;51.386;6.778;2023-04-23T13:53:24;1.43;;;1.33;;
10090;SDS011;5084;51.386;6.778;2023-04-23T13:55:52;4.17;;;1.90;;
10090;SDS011;5084;51.386;6.778;2023-04-23T13:58:18;1.77;;;1.53;;
10090;SDS011;5084;51.386;6.778;2023-04-23T14:06:52;3.00;;;1.90;;
10090;SDS011;5084;51.386;6.778;2023-04-23T14:09:18;1.90;;;1.67;;
10090;SDS011;5084;51.386;6.778;2023-04-23T14:11:46;2.10;;;1.70;;
10090;SDS011;5084;51.386;6.778;2023-04-23T14:14:12;2.13;;;1.93;;
10090;SDS011;5084;51.386;6.778;2023-04-23T14:16:39;1.97;;;1.87;;
10090;SDS011;5084;51.386;6.778;2023-04-23T14:19:05;1.93;;;1.67;;
10090;SDS011;5084;51.386;6.778;2023-04-23T14:21:31;2.33;;;1.50;;
10090;SDS011;5084;51.386;6.778;2023-04-23T14:24:00;2.10;;;1.80;;
10090;SDS011;5084;51.386;6.778;2023-04-23T14:26:31;1.83;;;1.63;;
10090;SDS011;5084;51.386;6.778;2023-04-23T14:29:03;3.63;;;2.23;;
10090;SDS011;5084;51.386;6.778;2023-04-23T14:31:34;3.67;;;1.90;;
10090;SDS011;5084;51.386;6.778;2023-04-23T14:34:03;4.97;;;2.03;;
10090;SDS011;5084;51.386;6.778;2023-04-23T14:36:30;2.50;;;1.70;;
10090;SDS011;5084;51.386;6.778;2023-04-23T14:38:56;2.63;;;1.80;;
10090;SDS011;5084;51.386;6.778;2023-04-23T14:41:28;2.00;;;1.80;;
10090;SDS011;5084;51.386;6.778;2023-04-23T14:43:55;3.33;;;1.90;;
10090;SDS011;5084;51.386;6.778;2023-04-23T14:46:21;1.93;;;1.60;;
10090;SDS011;5084;51.386;6.778;2023-04-23T14:48:47;3.47;;;1.90;;
10090;SDS011;5084;51.386;6.778;2023-04-23T14:51:13;2.60;;;1.90;;
10090;SDS011;5084;51.386;6.778;2023-04-23T14:53:40;2.47;;;1.90;;
10090;SDS011;5084;51.386;6.778;2023-04-23T14:56:06;2.93;;;2.10;;
10090;SDS011;5084;51.386;6.778;2023-04-23T14:58:32;2.80;;;1.90;;